VLG3RP LEBL-EHAM
Flight info
| Callsign | VLG3RP |
|---|---|
| Flight time | 1h 49m |
| Altitude | 34000 |
| Route | OLOXO DCT OKABI DCT TOU DCT ADABI DCT BOKNO UN858 VANAD UN874 BAMES UT191 PODEM UN873 BAZOS DCT LUMIL DCT BELOB UY873 DENUT |
| Aircraft | A321/M-SDE3FGHIRWY/LB1 |
Departure
| Time | 2026-05-07 13:45 |
|---|---|
| Airport | Josep Tarradellas Barcelona-El Prat Airport (LEBL) |
Arrival
| Time | 2026-05-07 15:34 |
|---|---|
| Airport | Amsterdam Airport Schiphol (EHAM) |
| Time | Latitude | Longitude | Altitude | Speed | Heading |
|---|---|---|---|---|---|
| 2026-05-07 13:27 | 41.28990 | 2.07958 | 3 ft | 0 kts | 336° |
| 2026-05-07 13:36 | 41.28968 | 2.07972 | 4 ft | 4 kts | 328° |
| 2026-05-07 13:36 | 41.28947 | 2.07994 | 3 ft | 4 kts | 310° |
| 2026-05-07 13:36 | 41.28935 | 2.08022 | 4 ft | 4 kts | 263° |
| 2026-05-07 13:37 | 41.28936 | 2.08032 | 3 ft | 0 kts | 245° |
| 2026-05-07 13:39 | 41.28935 | 2.08027 | 3 ft | 2 kts | 245° |
| 2026-05-07 13:40 | 41.28926 | 2.08003 | 4 ft | 4 kts | 245° |
| 2026-05-07 13:40 | 41.28914 | 2.07969 | 3 ft | 5 kts | 245° |
| 2026-05-07 13:40 | 41.28900 | 2.07927 | 3 ft | 5 kts | 245° |
| 2026-05-07 13:40 | 41.28882 | 2.07877 | 4 ft | 7 kts | 240° |
| 2026-05-07 13:41 | 41.28831 | 2.07858 | 3 ft | 9 kts | 161° |
| 2026-05-07 13:41 | 41.28768 | 2.07896 | 4 ft | 10 kts | 155° |
| 2026-05-07 13:41 | 41.28701 | 2.07937 | 3 ft | 11 kts | 155° |
| 2026-05-07 13:41 | 41.28629 | 2.07980 | 3 ft | 11 kts | 166° |
| 2026-05-07 13:42 | 41.28580 | 2.07910 | 4 ft | 12 kts | 245° |
| 2026-05-07 13:42 | 41.28546 | 2.07810 | 3 ft | 12 kts | 245° |
| 2026-05-07 13:42 | 41.28510 | 2.07703 | 3 ft | 13 kts | 245° |
| 2026-05-07 13:42 | 41.28471 | 2.07591 | 3 ft | 14 kts | 245° |
| 2026-05-07 13:43 | 41.28431 | 2.07473 | 3 ft | 12 kts | 245° |
| 2026-05-07 13:43 | 41.28389 | 2.07369 | 3 ft | 13 kts | 226° |
| 2026-05-07 13:43 | 41.28345 | 2.07341 | 3 ft | 5 kts | 192° |
| 2026-05-07 13:43 | 41.28311 | 2.07347 | 4 ft | 5 kts | 159° |
| 2026-05-07 13:44 | 41.28265 | 2.07377 | 7 ft | 9 kts | 154° |
| 2026-05-07 13:44 | 41.28234 | 2.07456 | 8 ft | 13 kts | 73° |
| 2026-05-07 13:44 | 41.28331 | 2.07741 | 7 ft | 67 kts | 65° |
| 2026-05-07 13:44 | 41.28616 | 2.08568 | 12 ft | 128 kts | 65° |
| 2026-05-07 13:45 | 41.29042 | 2.09823 | 131 ft | 162 kts | 65° |
| 2026-05-07 13:45 | 41.29414 | 2.11174 | 850 ft | 156 kts | 85° |
| 2026-05-07 13:45 | 41.29278 | 2.12609 | 1385 ft | 158 kts | 103° |
| 2026-05-07 13:45 | 41.29073 | 2.14123 | 1670 ft | 176 kts | 98° |
| 2026-05-07 13:46 | 41.28912 | 2.15826 | 1843 ft | 195 kts | 97° |
| 2026-05-07 13:46 | 41.28748 | 2.17686 | 2163 ft | 207 kts | 97° |
| 2026-05-07 13:46 | 41.28584 | 2.19602 | 2686 ft | 210 kts | 97° |
| 2026-05-07 13:46 | 41.28414 | 2.21551 | 3199 ft | 214 kts | 97° |
| 2026-05-07 13:47 | 41.28237 | 2.23526 | 3717 ft | 217 kts | 97° |
| 2026-05-07 13:47 | 41.28053 | 2.25522 | 4204 ft | 219 kts | 98° |
| 2026-05-07 13:47 | 41.27865 | 2.27531 | 4690 ft | 219 kts | 97° |
| 2026-05-07 13:47 | 41.27645 | 2.29542 | 5152 ft | 222 kts | 104° |
| 2026-05-07 13:48 | 41.27026 | 2.31416 | 5567 ft | 227 kts | 124° |
| 2026-05-07 13:48 | 41.25949 | 2.33055 | 5684 ft | 247 kts | 135° |
| 2026-05-07 13:48 | 41.24693 | 2.34768 | 5933 ft | 268 kts | 135° |
| 2026-05-07 13:48 | 41.23381 | 2.36570 | 6501 ft | 274 kts | 135° |
| 2026-05-07 13:49 | 41.22046 | 2.38410 | 7144 ft | 278 kts | 134° |
| 2026-05-07 13:49 | 41.20698 | 2.40278 | 7816 ft | 281 kts | 134° |
| 2026-05-07 13:49 | 41.19335 | 2.42163 | 8495 ft | 284 kts | 135° |
| 2026-05-07 13:49 | 41.17804 | 2.43817 | 9120 ft | 286 kts | 153° |
| 2026-05-07 13:50 | 41.15906 | 2.44586 | 9715 ft | 288 kts | 177° |
| 2026-05-07 13:50 | 41.13922 | 2.44252 | 10323 ft | 290 kts | 201° |
| 2026-05-07 13:50 | 41.12214 | 2.42859 | 10951 ft | 291 kts | 225° |
| 2026-05-07 13:50 | 41.11052 | 2.40644 | 11392 ft | 302 kts | 248° |
| 2026-05-07 13:51 | 41.10690 | 2.37831 | 11520 ft | 323 kts | 274° |
| 2026-05-07 13:51 | 41.11289 | 2.34870 | 11659 ft | 343 kts | 290° |
| 2026-05-07 13:51 | 41.12155 | 2.31846 | 11928 ft | 356 kts | 290° |
| 2026-05-07 13:51 | 41.13047 | 2.28758 | 12441 ft | 361 kts | 290° |
| 2026-05-07 13:52 | 41.13935 | 2.25668 | 13011 ft | 364 kts | 290° |
| 2026-05-07 13:52 | 41.14838 | 2.22513 | 13609 ft | 367 kts | 289° |
| 2026-05-07 13:52 | 41.15755 | 2.19296 | 14214 ft | 369 kts | 290° |
| 2026-05-07 13:52 | 41.16882 | 2.16266 | 14746 ft | 374 kts | 301° |
| 2026-05-07 13:53 | 41.18503 | 2.13537 | 15285 ft | 380 kts | 313° |
| 2026-05-07 13:53 | 41.20589 | 2.11272 | 15837 ft | 386 kts | 326° |
| 2026-05-07 13:53 | 41.22943 | 2.09502 | 16398 ft | 389 kts | 329° |
| 2026-05-07 13:53 | 41.25296 | 2.07782 | 16911 ft | 393 kts | 329° |
| 2026-05-07 13:54 | 41.27696 | 2.06020 | 17422 ft | 396 kts | 329° |
| 2026-05-07 13:54 | 41.30121 | 2.04229 | 17923 ft | 400 kts | 328° |
| 2026-05-07 13:54 | 41.32555 | 2.02427 | 18409 ft | 402 kts | 328° |
| 2026-05-07 13:54 | 41.35011 | 2.00603 | 18902 ft | 405 kts | 328° |
| 2026-05-07 13:55 | 41.37483 | 1.98761 | 19389 ft | 409 kts | 328° |
| 2026-05-07 13:55 | 41.39973 | 1.96904 | 19848 ft | 412 kts | 328° |
| 2026-05-07 13:55 | 41.42481 | 1.95036 | 20314 ft | 415 kts | 328° |
| 2026-05-07 13:55 | 41.45008 | 1.93160 | 20756 ft | 417 kts | 328° |
| 2026-05-07 13:56 | 41.47554 | 1.91277 | 21168 ft | 420 kts | 328° |
| 2026-05-07 13:56 | 41.50124 | 1.89377 | 21591 ft | 423 kts | 328° |
| 2026-05-07 13:56 | 41.52700 | 1.87469 | 21999 ft | 425 kts | 327° |
| 2026-05-07 13:56 | 41.55294 | 1.85536 | 22404 ft | 428 kts | 327° |
| 2026-05-07 13:57 | 41.57979 | 1.83781 | 22791 ft | 434 kts | 335° |
| 2026-05-07 13:57 | 41.59882 | 1.82933 | 23037 ft | 438 kts | 342° |
| 2026-05-07 13:57 | 41.62902 | 1.82192 | 23331 ft | 445 kts | 351° |
| 2026-05-07 13:57 | 41.65900 | 1.81816 | 23661 ft | 448 kts | 352° |
| 2026-05-07 13:58 | 41.69010 | 1.81417 | 24014 ft | 450 kts | 351° |
| 2026-05-07 13:58 | 41.72134 | 1.81003 | 24348 ft | 453 kts | 351° |
| 2026-05-07 13:58 | 41.75269 | 1.80506 | 24678 ft | 453 kts | 346° |
| 2026-05-07 13:58 | 41.78281 | 1.79504 | 24996 ft | 452 kts | 338° |
| 2026-05-07 13:59 | 41.81276 | 1.78212 | 25327 ft | 454 kts | 338° |
| 2026-05-07 13:59 | 41.84299 | 1.76911 | 25652 ft | 456 kts | 338° |
| 2026-05-07 13:59 | 41.87328 | 1.75608 | 25957 ft | 459 kts | 338° |
| 2026-05-07 13:59 | 41.90377 | 1.74299 | 26268 ft | 461 kts | 338° |
| 2026-05-07 14:00 | 41.93448 | 1.72982 | 26572 ft | 464 kts | 338° |
| 2026-05-07 14:00 | 41.96528 | 1.71658 | 26889 ft | 466 kts | 338° |
| 2026-05-07 14:00 | 41.99618 | 1.70328 | 27169 ft | 468 kts | 338° |
| 2026-05-07 14:00 | 42.02724 | 1.68991 | 27442 ft | 469 kts | 338° |
| 2026-05-07 14:01 | 42.05843 | 1.67647 | 27707 ft | 472 kts | 338° |
| 2026-05-07 14:01 | 42.08972 | 1.66295 | 27983 ft | 474 kts | 338° |
| 2026-05-07 14:01 | 42.12116 | 1.64936 | 28263 ft | 476 kts | 338° |
| 2026-05-07 14:01 | 42.15280 | 1.63565 | 28534 ft | 478 kts | 338° |
| 2026-05-07 14:02 | 42.18414 | 1.62205 | 28821 ft | 480 kts | 337° |
| 2026-05-07 14:02 | 42.21639 | 1.60808 | 29126 ft | 481 kts | 337° |
| 2026-05-07 14:02 | 42.24780 | 1.59447 | 29475 ft | 480 kts | 337° |
| 2026-05-07 14:02 | 42.27960 | 1.58067 | 29858 ft | 479 kts | 337° |
| 2026-05-07 14:03 | 42.31131 | 1.56687 | 30197 ft | 479 kts | 337° |
| 2026-05-07 14:03 | 42.34293 | 1.55311 | 30470 ft | 478 kts | 337° |
| 2026-05-07 14:03 | 42.37457 | 1.53930 | 30800 ft | 478 kts | 337° |
| 2026-05-07 14:03 | 42.40616 | 1.52549 | 31137 ft | 477 kts | 337° |
| 2026-05-07 14:04 | 42.43817 | 1.51340 | 31472 ft | 480 kts | 344° |
| 2026-05-07 14:04 | 42.47136 | 1.50682 | 31782 ft | 483 kts | 349° |
| 2026-05-07 14:04 | 42.50471 | 1.50149 | 32127 ft | 482 kts | 349° |
| 2026-05-07 14:04 | 42.53798 | 1.49617 | 32406 ft | 481 kts | 349° |
| 2026-05-07 14:05 | 42.57123 | 1.49086 | 32676 ft | 481 kts | 349° |
| 2026-05-07 14:05 | 42.60445 | 1.48554 | 33003 ft | 480 kts | 349° |
| 2026-05-07 14:05 | 42.63759 | 1.48023 | 33292 ft | 479 kts | 349° |
| 2026-05-07 14:05 | 42.67028 | 1.47500 | 33561 ft | 479 kts | 349° |
| 2026-05-07 14:06 | 42.70338 | 1.46968 | 33845 ft | 478 kts | 349° |
| 2026-05-07 14:06 | 42.73645 | 1.46433 | 33963 ft | 478 kts | 349° |
| 2026-05-07 14:06 | 42.76935 | 1.45900 | 33978 ft | 476 kts | 349° |
| 2026-05-07 14:07 | 42.83501 | 1.44834 | 33977 ft | 475 kts | 349° |
| 2026-05-07 14:07 | 42.90065 | 1.43772 | 33978 ft | 474 kts | 349° |
| 2026-05-07 14:08 | 42.96614 | 1.42711 | 33978 ft | 474 kts | 349° |
| 2026-05-07 14:08 | 43.03154 | 1.41654 | 33983 ft | 474 kts | 349° |
| 2026-05-07 14:09 | 43.09705 | 1.40592 | 33992 ft | 474 kts | 349° |
| 2026-05-07 14:09 | 43.16256 | 1.39521 | 33990 ft | 474 kts | 349° |
| 2026-05-07 14:10 | 43.22802 | 1.38451 | 33988 ft | 474 kts | 349° |
| 2026-05-07 14:10 | 43.29349 | 1.37383 | 33996 ft | 474 kts | 349° |
| 2026-05-07 14:11 | 43.35889 | 1.36305 | 33999 ft | 473 kts | 349° |
| 2026-05-07 14:11 | 43.42434 | 1.35227 | 33997 ft | 473 kts | 349° |
| 2026-05-07 14:12 | 43.48974 | 1.34142 | 33997 ft | 473 kts | 349° |
| 2026-05-07 14:12 | 43.55474 | 1.33066 | 33995 ft | 473 kts | 349° |
| 2026-05-07 14:13 | 43.62000 | 1.31997 | 33995 ft | 472 kts | 349° |
| 2026-05-07 14:13 | 43.68525 | 1.30907 | 33993 ft | 471 kts | 348° |
| 2026-05-07 14:14 | 43.74986 | 1.29433 | 33992 ft | 469 kts | 345° |
| 2026-05-07 14:14 | 43.81385 | 1.27642 | 33991 ft | 469 kts | 344° |
| 2026-05-07 14:15 | 43.87787 | 1.25875 | 33997 ft | 469 kts | 345° |
| 2026-05-07 14:15 | 43.94205 | 1.24211 | 33997 ft | 469 kts | 345° |
| 2026-05-07 14:16 | 44.00631 | 1.22565 | 34000 ft | 469 kts | 345° |
| 2026-05-07 14:16 | 44.07046 | 1.20899 | 34005 ft | 468 kts | 345° |
| 2026-05-07 14:17 | 44.13445 | 1.19234 | 34004 ft | 467 kts | 345° |
| 2026-05-07 14:17 | 44.19838 | 1.17573 | 34003 ft | 467 kts | 345° |
| 2026-05-07 14:18 | 44.26224 | 1.15899 | 34002 ft | 466 kts | 345° |
| 2026-05-07 14:18 | 44.32552 | 1.14235 | 34000 ft | 466 kts | 345° |
| 2026-05-07 14:19 | 44.38926 | 1.12552 | 34000 ft | 466 kts | 345° |
| 2026-05-07 14:19 | 44.45297 | 1.10872 | 33995 ft | 465 kts | 345° |
| 2026-05-07 14:20 | 44.51666 | 1.09191 | 33995 ft | 466 kts | 345° |
| 2026-05-07 14:20 | 44.58028 | 1.07511 | 33997 ft | 465 kts | 345° |
| 2026-05-07 14:21 | 44.64386 | 1.05827 | 33997 ft | 465 kts | 345° |
| 2026-05-07 14:21 | 44.70743 | 1.04133 | 33998 ft | 465 kts | 345° |
| 2026-05-07 14:22 | 44.77097 | 1.02432 | 33995 ft | 465 kts | 345° |
| 2026-05-07 14:22 | 44.83450 | 1.00738 | 34000 ft | 464 kts | 345° |
| 2026-05-07 14:23 | 44.89795 | 0.99043 | 33997 ft | 464 kts | 345° |
| 2026-05-07 14:23 | 44.96138 | 0.97339 | 33999 ft | 464 kts | 345° |
| 2026-05-07 14:24 | 45.02439 | 0.95642 | 34001 ft | 464 kts | 345° |
| 2026-05-07 14:24 | 45.08775 | 0.93938 | 33999 ft | 463 kts | 345° |
| 2026-05-07 14:25 | 45.15099 | 0.92230 | 33995 ft | 462 kts | 345° |
| 2026-05-07 14:25 | 45.21421 | 0.90510 | 33994 ft | 462 kts | 345° |
| 2026-05-07 14:26 | 45.27736 | 0.88799 | 33995 ft | 462 kts | 345° |
| 2026-05-07 14:26 | 45.34058 | 0.87087 | 33999 ft | 462 kts | 345° |
| 2026-05-07 14:27 | 45.40368 | 0.85364 | 34000 ft | 461 kts | 345° |
| 2026-05-07 14:27 | 45.46666 | 0.83635 | 33997 ft | 461 kts | 345° |
| 2026-05-07 14:28 | 45.52961 | 0.81913 | 34002 ft | 460 kts | 345° |
| 2026-05-07 14:28 | 45.59248 | 0.80188 | 34001 ft | 460 kts | 345° |
| 2026-05-07 14:29 | 45.65527 | 0.78457 | 34001 ft | 460 kts | 345° |
| 2026-05-07 14:29 | 45.71812 | 0.76734 | 34005 ft | 460 kts | 345° |
| 2026-05-07 14:30 | 45.78096 | 0.75004 | 34010 ft | 459 kts | 345° |
| 2026-05-07 14:30 | 45.84369 | 0.73260 | 34007 ft | 458 kts | 345° |
| 2026-05-07 14:31 | 45.90597 | 0.71525 | 34008 ft | 459 kts | 345° |
| 2026-05-07 14:31 | 45.96871 | 0.69788 | 34010 ft | 459 kts | 345° |
| 2026-05-07 14:32 | 46.03150 | 0.68047 | 34014 ft | 460 kts | 345° |
| 2026-05-07 14:32 | 46.09421 | 0.66285 | 34028 ft | 459 kts | 345° |
| 2026-05-07 14:33 | 46.15683 | 0.64520 | 34029 ft | 458 kts | 345° |
| 2026-05-07 14:33 | 46.21935 | 0.62757 | 34032 ft | 457 kts | 345° |
| 2026-05-07 14:34 | 46.28184 | 0.61001 | 34025 ft | 457 kts | 345° |
| 2026-05-07 14:34 | 46.34441 | 0.59237 | 34028 ft | 458 kts | 345° |
| 2026-05-07 14:35 | 46.40689 | 0.57467 | 34028 ft | 457 kts | 345° |
| 2026-05-07 14:35 | 46.46929 | 0.55695 | 34023 ft | 457 kts | 345° |
| 2026-05-07 14:36 | 46.53177 | 0.53996 | 34022 ft | 459 kts | 349° |
| 2026-05-07 14:36 | 46.59544 | 0.54222 | 34017 ft | 467 kts | 8° |
| 2026-05-07 14:37 | 46.65891 | 0.56304 | 34018 ft | 467 kts | 10° |
| 2026-05-07 14:37 | 46.75406 | 0.59448 | 34021 ft | 467 kts | 10° |
| 2026-05-07 14:38 | 46.81747 | 0.61548 | 34033 ft | 467 kts | 10° |
| 2026-05-07 14:38 | 46.88088 | 0.63649 | 34036 ft | 467 kts | 10° |
| 2026-05-07 14:39 | 46.94420 | 0.65742 | 34039 ft | 466 kts | 10° |
| 2026-05-07 14:39 | 47.00747 | 0.67840 | 34043 ft | 465 kts | 10° |
| 2026-05-07 14:40 | 47.07099 | 0.69434 | 34036 ft | 461 kts | 1° |
| 2026-05-07 14:40 | 47.13514 | 0.70084 | 34043 ft | 461 kts | 1° |
| 2026-05-07 14:41 | 47.19908 | 0.70750 | 34047 ft | 461 kts | 1° |
| 2026-05-07 14:41 | 47.26309 | 0.71416 | 34046 ft | 461 kts | 1° |
| 2026-05-07 14:42 | 47.32670 | 0.72087 | 34049 ft | 460 kts | 1° |
| 2026-05-07 14:42 | 47.39060 | 0.72762 | 34045 ft | 459 kts | 1° |
| 2026-05-07 14:43 | 47.45442 | 0.73433 | 34046 ft | 459 kts | 1° |
| 2026-05-07 14:43 | 47.51747 | 0.74932 | 34039 ft | 462 kts | 16° |
| 2026-05-07 14:44 | 47.57841 | 0.77932 | 34024 ft | 461 kts | 16° |
| 2026-05-07 14:44 | 47.62905 | 0.80426 | 34028 ft | 461 kts | 16° |
| 2026-05-07 14:45 | 47.69003 | 0.83429 | 34037 ft | 462 kts | 16° |
| 2026-05-07 14:45 | 47.75109 | 0.86444 | 34027 ft | 462 kts | 17° |
| 2026-05-07 14:46 | 47.81202 | 0.89473 | 34028 ft | 462 kts | 17° |
| 2026-05-07 14:46 | 47.87298 | 0.92513 | 34041 ft | 462 kts | 17° |
| 2026-05-07 14:47 | 47.93389 | 0.95584 | 34046 ft | 462 kts | 17° |
| 2026-05-07 14:47 | 47.99474 | 0.98676 | 34045 ft | 462 kts | 17° |
| 2026-05-07 14:48 | 48.05519 | 1.01746 | 34057 ft | 462 kts | 17° |
| 2026-05-07 14:48 | 48.11634 | 1.04859 | 34057 ft | 461 kts | 17° |
| 2026-05-07 14:49 | 48.17656 | 1.07933 | 34056 ft | 460 kts | 17° |
| 2026-05-07 14:49 | 48.23725 | 1.11028 | 34056 ft | 460 kts | 17° |
| 2026-05-07 14:50 | 48.29785 | 1.14120 | 34054 ft | 460 kts | 17° |
| 2026-05-07 14:50 | 48.35842 | 1.17210 | 34054 ft | 459 kts | 17° |
| 2026-05-07 14:51 | 48.41893 | 1.20311 | 34058 ft | 460 kts | 17° |
| 2026-05-07 14:51 | 48.47945 | 1.23422 | 34060 ft | 460 kts | 17° |
| 2026-05-07 14:52 | 48.53998 | 1.26531 | 34062 ft | 459 kts | 17° |
| 2026-05-07 14:52 | 48.60052 | 1.29623 | 34064 ft | 459 kts | 17° |
| 2026-05-07 14:53 | 48.66114 | 1.32665 | 34065 ft | 459 kts | 16° |
| 2026-05-07 14:53 | 48.72169 | 1.35707 | 34065 ft | 458 kts | 17° |
| 2026-05-07 14:54 | 48.78213 | 1.38769 | 34064 ft | 458 kts | 17° |
| 2026-05-07 14:54 | 48.84262 | 1.41832 | 34063 ft | 458 kts | 16° |
| 2026-05-07 14:55 | 48.90308 | 1.44908 | 34065 ft | 459 kts | 17° |
| 2026-05-07 14:55 | 48.96362 | 1.47986 | 34064 ft | 458 kts | 14° |
| 2026-05-07 14:56 | 49.02550 | 1.49775 | 34068 ft | 455 kts | 6° |
| 2026-05-07 14:56 | 49.08815 | 1.51224 | 34068 ft | 456 kts | 6° |
| 2026-05-07 14:57 | 49.15080 | 1.52698 | 34069 ft | 456 kts | 6° |
| 2026-05-07 14:57 | 49.21345 | 1.54252 | 34063 ft | 457 kts | 11° |
| 2026-05-07 14:58 | 49.27242 | 1.57913 | 34065 ft | 461 kts | 30° |
| 2026-05-07 14:58 | 49.32199 | 1.64147 | 34061 ft | 463 kts | 43° |
| 2026-05-07 14:59 | 49.36864 | 1.70960 | 34060 ft | 463 kts | 43° |
| 2026-05-07 14:59 | 49.41530 | 1.77785 | 34061 ft | 463 kts | 43° |
| 2026-05-07 15:00 | 49.46189 | 1.84639 | 34065 ft | 464 kts | 43° |
| 2026-05-07 15:00 | 49.50822 | 1.91459 | 34063 ft | 464 kts | 41° |
| 2026-05-07 15:01 | 49.55934 | 1.97473 | 34065 ft | 463 kts | 35° |
| 2026-05-07 15:01 | 49.61125 | 2.03345 | 34067 ft | 463 kts | 35° |
| 2026-05-07 15:02 | 49.66311 | 2.09240 | 34071 ft | 463 kts | 35° |
| 2026-05-07 15:02 | 49.71499 | 2.15146 | 34070 ft | 463 kts | 35° |
| 2026-05-07 15:03 | 49.76692 | 2.21064 | 34072 ft | 463 kts | 35° |
| 2026-05-07 15:03 | 49.81870 | 2.26990 | 34077 ft | 463 kts | 35° |
| 2026-05-07 15:04 | 49.87048 | 2.32928 | 34076 ft | 463 kts | 35° |
| 2026-05-07 15:04 | 49.92190 | 2.38842 | 34076 ft | 463 kts | 35° |
| 2026-05-07 15:05 | 49.97396 | 2.44847 | 34077 ft | 463 kts | 35° |
| 2026-05-07 15:05 | 50.02527 | 2.50778 | 34077 ft | 462 kts | 36° |
| 2026-05-07 15:06 | 50.07682 | 2.56751 | 34077 ft | 462 kts | 36° |
| 2026-05-07 15:06 | 50.12831 | 2.62743 | 34074 ft | 462 kts | 35° |
| 2026-05-07 15:07 | 50.17988 | 2.68754 | 34073 ft | 463 kts | 35° |
| 2026-05-07 15:07 | 50.23143 | 2.74767 | 34071 ft | 462 kts | 35° |
| 2026-05-07 15:08 | 50.28291 | 2.80796 | 34071 ft | 463 kts | 35° |
| 2026-05-07 15:08 | 50.33435 | 2.86846 | 34082 ft | 462 kts | 35° |
| 2026-05-07 15:09 | 50.38563 | 2.92909 | 34079 ft | 462 kts | 35° |
| 2026-05-07 15:09 | 50.43865 | 2.98543 | 34078 ft | 459 kts | 26° |
| 2026-05-07 15:10 | 50.49501 | 3.03256 | 34085 ft | 459 kts | 26° |
| 2026-05-07 15:10 | 50.55134 | 3.08009 | 34092 ft | 460 kts | 26° |
| 2026-05-07 15:11 | 50.60764 | 3.12788 | 34096 ft | 460 kts | 26° |
| 2026-05-07 15:11 | 50.66394 | 3.17577 | 34098 ft | 460 kts | 27° |
| 2026-05-07 15:12 | 50.71984 | 3.22335 | 34098 ft | 459 kts | 26° |
| 2026-05-07 15:12 | 50.77629 | 3.27052 | 34096 ft | 459 kts | 26° |
| 2026-05-07 15:13 | 50.80457 | 3.29388 | 33815 ft | 460 kts | 26° |
| 2026-05-07 15:13 | 50.83334 | 3.31768 | 32644 ft | 473 kts | 26° |
| 2026-05-07 15:13 | 50.86269 | 3.34206 | 31770 ft | 477 kts | 26° |
| 2026-05-07 15:13 | 50.89213 | 3.36659 | 30901 ft | 479 kts | 26° |
| 2026-05-07 15:14 | 50.92143 | 3.39113 | 30389 ft | 474 kts | 26° |
| 2026-05-07 15:14 | 50.95045 | 3.41552 | 29793 ft | 471 kts | 26° |
| 2026-05-07 15:14 | 50.97928 | 3.43983 | 29216 ft | 467 kts | 26° |
| 2026-05-07 15:14 | 51.00788 | 3.46403 | 28639 ft | 464 kts | 27° |
| 2026-05-07 15:15 | 51.03586 | 3.48774 | 28067 ft | 460 kts | 27° |
| 2026-05-07 15:15 | 51.06403 | 3.51161 | 27495 ft | 456 kts | 27° |
| 2026-05-07 15:15 | 51.09191 | 3.53519 | 26928 ft | 452 kts | 27° |
| 2026-05-07 15:15 | 51.11959 | 3.55858 | 26372 ft | 448 kts | 27° |
| 2026-05-07 15:16 | 51.14698 | 3.58176 | 25821 ft | 444 kts | 27° |
| 2026-05-07 15:16 | 51.17409 | 3.60474 | 25268 ft | 439 kts | 27° |
| 2026-05-07 15:16 | 51.20093 | 3.62743 | 24743 ft | 434 kts | 25° |
| 2026-05-07 15:16 | 51.22876 | 3.64533 | 24240 ft | 428 kts | 17° |
| 2026-05-07 15:17 | 51.25646 | 3.66119 | 24018 ft | 416 kts | 20° |
| 2026-05-07 15:17 | 51.28293 | 3.67906 | 23635 ft | 411 kts | 23° |
| 2026-05-07 15:17 | 51.30874 | 3.69812 | 23193 ft | 407 kts | 24° |
| 2026-05-07 15:17 | 51.33424 | 3.71748 | 22738 ft | 404 kts | 24° |
| 2026-05-07 15:18 | 51.35957 | 3.73658 | 22308 ft | 401 kts | 24° |
| 2026-05-07 15:18 | 51.38471 | 3.75512 | 21717 ft | 396 kts | 23° |
| 2026-05-07 15:18 | 51.40968 | 3.77315 | 21009 ft | 392 kts | 23° |
| 2026-05-07 15:18 | 51.43448 | 3.79069 | 20319 ft | 387 kts | 22° |
| 2026-05-07 15:19 | 51.45900 | 3.80789 | 19559 ft | 381 kts | 22° |
| 2026-05-07 15:19 | 51.48315 | 3.82481 | 18693 ft | 376 kts | 22° |
| 2026-05-07 15:19 | 51.50668 | 3.84137 | 17849 ft | 371 kts | 22° |
| 2026-05-07 15:19 | 51.53011 | 3.85795 | 16987 ft | 366 kts | 23° |
| 2026-05-07 15:20 | 51.55327 | 3.87440 | 16127 ft | 361 kts | 23° |
| 2026-05-07 15:20 | 51.57611 | 3.89067 | 15264 ft | 357 kts | 23° |
| 2026-05-07 15:20 | 51.59868 | 3.90676 | 14395 ft | 352 kts | 23° |
| 2026-05-07 15:20 | 51.62028 | 3.92217 | 13554 ft | 348 kts | 23° |
| 2026-05-07 15:21 | 51.64229 | 3.93787 | 12693 ft | 344 kts | 23° |
| 2026-05-07 15:21 | 51.66330 | 3.95595 | 11997 ft | 343 kts | 32° |
| 2026-05-07 15:21 | 51.68332 | 3.97658 | 11552 ft | 340 kts | 32° |
| 2026-05-07 15:21 | 51.70297 | 3.99675 | 11091 ft | 337 kts | 32° |
| 2026-05-07 15:22 | 51.72284 | 4.01718 | 10602 ft | 336 kts | 32° |
| 2026-05-07 15:22 | 51.74248 | 4.03742 | 10124 ft | 334 kts | 33° |
| 2026-05-07 15:22 | 51.76180 | 4.05741 | 9917 ft | 323 kts | 33° |
| 2026-05-07 15:22 | 51.78033 | 4.07659 | 9815 ft | 310 kts | 33° |
| 2026-05-07 15:23 | 51.79817 | 4.09503 | 9688 ft | 299 kts | 33° |
| 2026-05-07 15:23 | 51.81545 | 4.11294 | 9452 ft | 293 kts | 33° |
| 2026-05-07 15:23 | 51.83249 | 4.13063 | 9133 ft | 290 kts | 34° |
| 2026-05-07 15:23 | 51.84939 | 4.14815 | 8785 ft | 288 kts | 33° |
| 2026-05-07 15:24 | 51.86626 | 4.16562 | 8421 ft | 287 kts | 33° |
| 2026-05-07 15:24 | 51.88300 | 4.18299 | 8085 ft | 285 kts | 34° |
| 2026-05-07 15:24 | 51.89964 | 4.20034 | 7760 ft | 283 kts | 33° |
| 2026-05-07 15:24 | 51.91610 | 4.21751 | 7431 ft | 281 kts | 34° |
| 2026-05-07 15:25 | 51.93246 | 4.23459 | 7091 ft | 279 kts | 33° |
| 2026-05-07 15:25 | 51.94871 | 4.25159 | 6753 ft | 277 kts | 33° |
| 2026-05-07 15:25 | 51.96483 | 4.26845 | 6431 ft | 275 kts | 33° |
| 2026-05-07 15:25 | 51.98083 | 4.28516 | 6101 ft | 272 kts | 33° |
| 2026-05-07 15:26 | 51.99677 | 4.30182 | 5766 ft | 271 kts | 33° |
| 2026-05-07 15:26 | 52.01255 | 4.31830 | 5449 ft | 269 kts | 33° |
| 2026-05-07 15:26 | 52.02803 | 4.33447 | 5142 ft | 267 kts | 33° |
| 2026-05-07 15:26 | 52.04355 | 4.35075 | 4853 ft | 263 kts | 33° |
| 2026-05-07 15:27 | 52.05865 | 4.36666 | 4712 ft | 254 kts | 33° |
| 2026-05-07 15:27 | 52.07320 | 4.38199 | 4587 ft | 245 kts | 33° |
| 2026-05-07 15:27 | 52.08725 | 4.39676 | 4468 ft | 234 kts | 33° |
| 2026-05-07 15:27 | 52.10072 | 4.41094 | 4229 ft | 229 kts | 33° |
| 2026-05-07 15:28 | 52.11396 | 4.42489 | 4041 ft | 220 kts | 34° |
| 2026-05-07 15:28 | 52.12630 | 4.43785 | 3937 ft | 202 kts | 33° |
| 2026-05-07 15:28 | 52.13760 | 4.44978 | 3779 ft | 187 kts | 34° |
| 2026-05-07 15:28 | 52.14835 | 4.46116 | 3452 ft | 182 kts | 34° |
| 2026-05-07 15:29 | 52.15892 | 4.47235 | 3108 ft | 180 kts | 34° |
| 2026-05-07 15:29 | 52.16940 | 4.48338 | 2760 ft | 179 kts | 35° |
| 2026-05-07 15:29 | 52.17993 | 4.49453 | 2531 ft | 182 kts | 35° |
| 2026-05-07 15:29 | 52.19060 | 4.50591 | 2396 ft | 185 kts | 35° |
| 2026-05-07 15:30 | 52.20115 | 4.51752 | 2321 ft | 186 kts | 41° |
| 2026-05-07 15:30 | 52.20968 | 4.53313 | 2244 ft | 185 kts | 57° |
| 2026-05-07 15:30 | 52.21688 | 4.55057 | 2163 ft | 185 kts | 59° |
| 2026-05-07 15:30 | 52.22385 | 4.56830 | 2088 ft | 187 kts | 59° |
| 2026-05-07 15:31 | 52.23073 | 4.58600 | 2034 ft | 183 kts | 57° |
| 2026-05-07 15:31 | 52.23749 | 4.60345 | 1864 ft | 181 kts | 57° |
| 2026-05-07 15:31 | 52.24420 | 4.62079 | 1648 ft | 179 kts | 57° |
| 2026-05-07 15:31 | 52.25058 | 4.63731 | 1431 ft | 166 kts | 56° |
| 2026-05-07 15:32 | 52.25655 | 4.65278 | 1229 ft | 154 kts | 57° |
| 2026-05-07 15:32 | 52.26215 | 4.66729 | 1013 ft | 148 kts | 57° |
| 2026-05-07 15:32 | 52.26759 | 4.68138 | 819 ft | 146 kts | 56° |
| 2026-05-07 15:32 | 52.27298 | 4.69534 | 629 ft | 145 kts | 57° |
| 2026-05-07 15:33 | 52.27833 | 4.70924 | 425 ft | 144 kts | 57° |
| 2026-05-07 15:33 | 52.28367 | 4.72309 | 242 ft | 144 kts | 57° |
| 2026-05-07 15:33 | 52.28720 | 4.73228 | 118 ft | 144 kts | 57° |
| 2026-05-07 15:33 | 52.29406 | 4.75005 | -2 ft | 120 kts | 59° |
| 2026-05-07 15:34 | 52.29756 | 4.75923 | -3 ft | 70 kts | 58° |
| 2026-05-07 15:34 | 52.29935 | 4.76386 | -4 ft | 27 kts | 56° |
| 2026-05-07 15:34 | 52.30014 | 4.76518 | -2 ft | 23 kts | 33° |
| 2026-05-07 15:34 | 52.30138 | 4.76633 | -1 ft | 18 kts | 27° |
| 2026-05-07 15:35 | 52.30213 | 4.76700 | -1 ft | 9 kts | 28° |
| 2026-05-07 15:35 | 52.30240 | 4.76724 | -1 ft | 0 kts | 27° |
| 2026-05-07 15:35 | 52.30243 | 4.76726 | -1 ft | 1 kts | 27° |
| 2026-05-07 15:35 | 52.30252 | 4.76734 | -1 ft | 0 kts | 27° |
| 2026-05-07 15:36 | 52.30255 | 4.76736 | -1 ft | 1 kts | 27° |
| 2026-05-07 15:36 | 52.30273 | 4.76749 | -1 ft | 4 kts | 18° |
| 2026-05-07 15:36 | 52.30303 | 4.76745 | -1 ft | 5 kts | 342° |
| 2026-05-07 15:36 | 52.30339 | 4.76705 | -1 ft | 9 kts | 304° |
| 2026-05-07 15:37 | 52.30327 | 4.76605 | -1 ft | 9 kts | 248° |
| 2026-05-07 15:37 | 52.30347 | 4.76528 | -1 ft | 8 kts | 325° |
| 2026-05-07 15:37 | 52.30400 | 4.76473 | -1 ft | 10 kts | 328° |
| 2026-05-07 15:37 | 52.30460 | 4.76411 | -1 ft | 10 kts | 328° |
| 2026-05-07 15:38 | 52.30505 | 4.76366 | -1 ft | 6 kts | 328° |
| 2026-05-07 15:38 | 52.30535 | 4.76333 | -1 ft | 4 kts | 316° |
| 2026-05-07 15:38 | 52.30532 | 4.76311 | -1 ft | 2 kts | 235° |
| 2026-05-07 15:38 | 52.30521 | 4.76286 | -1 ft | 3 kts | 237° |
| 2026-05-07 15:39 | 52.30511 | 4.76260 | -1 ft | 0 kts | 237° |